createdAt,value
2023-01-31T00:04:49.208Z,5.87
2023-01-31T00:09:51.150Z,5.67
2023-01-31T00:14:53.221Z,5.50
2023-01-31T00:19:55.335Z,6.37
2023-01-31T00:24:57.275Z,5.03
2023-01-31T00:29:59.283Z,6.10
2023-01-31T00:35:01.345Z,5.77
2023-01-31T00:40:04.365Z,6.17
2023-01-31T00:45:07.197Z,5.90
2023-01-31T00:50:13.994Z,7.10
2023-01-31T00:55:15.814Z,5.70
2023-01-31T01:00:18.236Z,6.47
2023-01-31T01:05:21.080Z,5.77
2023-01-31T01:10:23.322Z,5.57
2023-01-31T01:15:25.137Z,6.13
2023-01-31T01:20:27.139Z,5.70
2023-01-31T01:25:29.117Z,5.60
2023-01-31T01:30:34.929Z,6.77
2023-01-31T01:35:36.932Z,5.93
2023-01-31T01:40:39.037Z,5.97
2023-01-31T01:45:41.547Z,5.87
2023-01-31T01:50:49.463Z,6.63
2023-01-31T01:55:57.966Z,6.10
2023-01-31T02:01:06.636Z,7.17
2023-01-31T02:06:09.043Z,6.83
2023-01-31T02:11:24.326Z,6.47
2023-01-31T02:16:26.818Z,5.83
2023-01-31T02:21:59.750Z,7.00
2023-01-31T02:27:13.976Z,7.00
2023-01-31T02:32:17.575Z,7.03
2023-01-31T02:37:49.145Z,7.47
2023-01-31T02:43:07.197Z,6.80
2023-01-31T02:48:51.349Z,6.87
2023-01-31T02:54:07.971Z,7.63
2023-01-31T02:59:22.150Z,6.90
2023-01-31T03:04:31.416Z,6.83
2023-01-31T03:09:39.140Z,6.57
2023-01-31T03:15:01.419Z,7.07
2023-01-31T03:20:13.000Z,7.30
2023-01-31T03:25:18.776Z,7.33
2023-01-31T03:30:34.784Z,6.90
2023-01-31T03:35:41.078Z,6.77
2023-01-31T03:40:53.593Z,6.23
2023-01-31T03:46:06.417Z,6.33
2023-01-31T03:51:15.141Z,6.83
2023-01-31T03:56:31.260Z,6.43
2023-01-31T04:01:35.948Z,6.87
2023-01-31T04:06:39.237Z,7.07
2023-01-31T04:11:48.480Z,6.27
2023-01-31T04:16:50.480Z,6.30
2023-01-31T04:21:52.638Z,6.40
2023-01-31T04:26:54.443Z,6.67
2023-01-31T04:31:56.497Z,6.83
2023-01-31T04:36:58.558Z,6.40
2023-01-31T04:42:00.665Z,5.50
2023-01-31T04:47:02.631Z,6.37
2023-01-31T04:52:04.623Z,5.43
2023-01-31T04:57:06.730Z,5.53
2023-01-31T05:02:08.762Z,5.23
2023-01-31T05:07:10.642Z,5.30
2023-01-31T05:12:12.575Z,5.37
2023-01-31T05:17:14.579Z,5.07
2023-01-31T05:22:16.608Z,4.53
2023-01-31T05:27:19.477Z,5.30
2023-01-31T05:32:21.530Z,4.67
2023-01-31T05:37:23.488Z,4.17
2023-01-31T05:42:25.406Z,5.43
2023-01-31T05:47:27.337Z,4.80
2023-01-31T05:52:29.526Z,4.50
2023-01-31T05:57:31.473Z,5.07
2023-01-31T06:02:33.572Z,4.77
2023-01-31T06:07:35.574Z,5.03
2023-01-31T06:12:37.956Z,4.80
2023-01-31T06:17:39.991Z,4.13
2023-01-31T06:22:41.892Z,4.27
2023-01-31T06:27:44.196Z,4.87
2023-01-31T06:32:46.020Z,4.83
2023-01-31T06:37:47.834Z,5.33
2023-01-31T06:42:49.790Z,4.97
2023-01-31T06:47:51.867Z,5.13
2023-01-31T06:52:54.417Z,4.33
2023-01-31T06:57:56.442Z,4.30
2023-01-31T07:02:58.799Z,4.57
2023-01-31T07:08:00.824Z,4.93
2023-01-31T07:13:02.921Z,4.87
2023-01-31T07:18:06.229Z,4.77
2023-01-31T07:23:09.090Z,4.63
2023-01-31T07:28:11.808Z,3.93
2023-01-31T07:33:13.696Z,4.37
2023-01-31T07:38:15.525Z,4.43
2023-01-31T07:43:18.001Z,4.60
2023-01-31T07:48:23.444Z,4.13
2023-01-31T07:53:28.469Z,5.07
2023-01-31T07:58:30.795Z,5.63
2023-01-31T08:03:33.674Z,5.33
2023-01-31T08:08:39.850Z,4.97
2023-01-31T08:13:41.920Z,4.73
2023-01-31T08:18:43.817Z,4.93
2023-01-31T08:23:46.182Z,5.33
2023-01-31T08:28:50.404Z,5.60
2023-01-31T08:33:53.464Z,5.33
2023-01-31T08:38:56.052Z,5.90
2023-01-31T08:43:59.763Z,5.13
2023-01-31T08:49:03.405Z,4.00
2023-01-31T08:54:05.404Z,4.57
2023-01-31T08:59:07.286Z,4.17
2023-01-31T09:04:09.261Z,4.00
2023-01-31T09:09:11.797Z,3.77
2023-01-31T09:14:13.799Z,3.97
2023-01-31T09:19:15.577Z,4.20
2023-01-31T09:24:17.630Z,4.90
2023-01-31T09:29:19.765Z,4.07
2023-01-31T09:34:22.230Z,3.90
2023-01-31T09:39:25.201Z,4.50
2023-01-31T09:44:41.317Z,4.07
2023-01-31T09:49:51.599Z,4.50
2023-01-31T09:54:54.071Z,4.07
2023-01-31T10:00:16.356Z,4.00
2023-01-31T10:05:30.839Z,4.30
2023-01-31T10:10:32.753Z,4.70
2023-01-31T10:15:59.199Z,4.73
2023-01-31T10:21:06.832Z,3.87
2023-01-31T10:26:30.495Z,4.37
2023-01-31T10:31:44.995Z,4.50
2023-01-31T10:36:55.305Z,4.23
2023-01-31T10:42:15.904Z,4.97
2023-01-31T10:47:19.933Z,4.37
2023-01-31T10:52:43.931Z,4.30
2023-01-31T10:57:45.903Z,4.43
2023-01-31T11:02:48.189Z,4.17
2023-01-31T11:07:50.843Z,4.23
2023-01-31T11:12:57.270Z,4.10
2023-01-31T11:18:01.096Z,4.53
2023-01-31T11:23:06.840Z,4.07
2023-01-31T11:28:23.875Z,4.53
2023-01-31T11:34:02.058Z,3.77
2023-01-31T11:39:32.086Z,4.00
2023-01-31T11:44:33.960Z,4.17
2023-01-31T11:49:41.318Z,4.43
2023-01-31T11:54:54.416Z,4.30
2023-01-31T11:59:58.861Z,3.97
2023-01-31T12:05:02.414Z,4.20
2023-01-31T12:10:26.161Z,4.07
2023-01-31T12:15:29.922Z,4.17
2023-01-31T12:20:34.953Z,4.37
2023-01-31T12:25:42.985Z,3.90
2023-01-31T12:31:09.766Z,3.70
2023-01-31T12:36:17.873Z,4.47
2023-01-31T12:41:32.644Z,4.13
2023-01-31T12:46:57.741Z,3.63
2023-01-31T12:52:15.677Z,4.17
2023-01-31T12:57:40.972Z,5.47
2023-01-31T13:03:01.698Z,5.90
2023-01-31T13:08:17.913Z,4.67
2023-01-31T13:13:28.120Z,5.67
2023-01-31T13:18:34.793Z,5.00
2023-01-31T13:23:48.550Z,5.97
2023-01-31T13:29:05.229Z,6.43
2023-01-31T13:34:18.433Z,5.70
2023-01-31T13:39:24.564Z,6.17
2023-01-31T13:44:26.605Z,5.63
2023-01-31T13:49:36.358Z,5.93
2023-01-31T13:54:41.998Z,4.80
2023-01-31T13:59:56.384Z,5.63
2023-01-31T14:05:42.431Z,5.03
2023-01-31T14:10:44.373Z,5.43
2023-01-31T14:15:50.027Z,5.07
2023-01-31T14:20:51.847Z,4.43
2023-01-31T14:25:53.717Z,4.10
2023-01-31T14:30:56.023Z,4.10
2023-01-31T14:36:13.544Z,5.30
2023-01-31T14:41:51.361Z,4.33
2023-01-31T14:47:08.161Z,3.90
2023-01-31T14:52:36.353Z,4.07
2023-01-31T14:57:43.501Z,3.73
2023-01-31T15:03:20.314Z,4.43
2023-01-31T15:08:22.089Z,4.37
2023-01-31T15:13:45.345Z,3.43
2023-01-31T15:19:09.176Z,3.27
2023-01-31T15:24:35.976Z,3.93
2023-01-31T15:30:06.926Z,2.60
2023-01-31T15:35:24.152Z,3.03
2023-01-31T15:40:28.872Z,3.33
2023-01-31T15:45:31.021Z,3.23
2023-01-31T15:50:34.062Z,3.40
2023-01-31T15:55:36.758Z,2.57
2023-01-31T16:00:39.147Z,2.70
2023-01-31T16:05:41.793Z,3.93
2023-01-31T16:10:45.808Z,3.77
2023-01-31T16:15:48.561Z,3.27
2023-01-31T16:20:52.722Z,3.43
2023-01-31T16:26:15.758Z,3.40
2023-01-31T16:31:21.440Z,3.43
2023-01-31T16:36:27.562Z,2.83
2023-01-31T16:41:58.337Z,4.10
2023-01-31T16:47:00.268Z,3.77
2023-01-31T16:52:23.587Z,3.53
2023-01-31T16:57:37.405Z,3.03
2023-01-31T17:02:41.416Z,3.57
2023-01-31T17:07:44.898Z,3.30
2023-01-31T17:12:46.755Z,3.33
2023-01-31T17:17:48.711Z,3.03
2023-01-31T17:23:00.921Z,3.17
2023-01-31T17:28:05.555Z,4.13
2023-01-31T17:33:12.282Z,2.97
2023-01-31T17:38:14.049Z,3.23
2023-01-31T17:43:21.131Z,3.40
2023-01-31T17:48:26.672Z,3.70
2023-01-31T17:53:34.481Z,3.97
2023-01-31T17:58:39.365Z,3.13
2023-01-31T18:03:42.244Z,3.40
2023-01-31T18:08:48.616Z,3.57
2023-01-31T18:13:52.760Z,3.30
2023-01-31T18:18:55.395Z,3.87
2023-01-31T18:23:58.836Z,3.97
2023-01-31T18:29:00.825Z,4.40
2023-01-31T18:34:02.947Z,4.27
2023-01-31T18:39:05.001Z,3.97
2023-01-31T18:44:06.972Z,4.40
2023-01-31T18:49:08.903Z,4.30
2023-01-31T18:54:10.911Z,5.57
2023-01-31T18:59:13.030Z,5.30
2023-01-31T19:04:14.881Z,5.53
2023-01-31T19:09:17.637Z,5.40
2023-01-31T19:14:20.098Z,5.07
2023-01-31T19:19:22.086Z,5.30
2023-01-31T19:24:23.961Z,4.20
2023-01-31T19:29:28.022Z,5.23
2023-01-31T19:34:30.004Z,5.37
2023-01-31T19:39:32.020Z,5.23
2023-01-31T19:44:36.102Z,5.33
2023-01-31T19:49:38.046Z,5.40
2023-01-31T19:54:41.307Z,5.70
2023-01-31T19:59:44.141Z,5.80
2023-01-31T20:04:46.082Z,6.47
2023-01-31T20:09:48.028Z,5.80
2023-01-31T20:14:49.997Z,6.17
2023-01-31T20:19:51.841Z,6.73
2023-01-31T20:24:54.825Z,5.77
2023-01-31T20:29:56.630Z,7.47
2023-01-31T20:35:00.161Z,6.83
2023-01-31T20:40:04.224Z,6.77
2023-01-31T20:45:06.812Z,6.40
2023-01-31T20:50:09.582Z,7.60
2023-01-31T20:55:11.566Z,6.37
2023-01-31T21:00:13.700Z,6.83
2023-01-31T21:05:21.905Z,7.50
2023-01-31T21:10:24.039Z,7.10
2023-01-31T21:15:27.268Z,7.47
2023-01-31T21:20:30.532Z,7.63
2023-01-31T21:25:32.636Z,7.37
2023-01-31T21:30:34.504Z,7.70
2023-01-31T21:35:37.500Z,7.53
2023-01-31T21:40:40.687Z,7.30
2023-01-31T21:45:42.768Z,6.80
2023-01-31T21:50:44.532Z,6.80
2023-01-31T21:55:46.550Z,6.87
2023-01-31T22:00:48.550Z,8.37
2023-01-31T22:05:50.554Z,8.23
2023-01-31T22:11:02.132Z,7.07
2023-01-31T22:16:09.670Z,7.27
2023-01-31T22:21:14.672Z,7.03
2023-01-31T22:26:25.083Z,7.60
2023-01-31T22:31:28.246Z,7.40
2023-01-31T22:36:30.431Z,7.60
2023-01-31T22:41:32.255Z,7.93
2023-01-31T22:46:34.239Z,8.53
2023-01-31T22:51:36.052Z,8.50
2023-01-31T22:56:38.137Z,8.13
2023-01-31T23:01:40.216Z,8.70
2023-01-31T23:06:42.189Z,8.70
2023-01-31T23:11:44.044Z,9.90
2023-01-31T23:17:04.449Z,8.13
2023-01-31T23:22:06.316Z,8.27
2023-01-31T23:27:08.297Z,8.17
2023-01-31T23:32:10.313Z,8.07
2023-01-31T23:37:12.139Z,8.27
2023-01-31T23:42:14.017Z,8.40
2023-01-31T23:47:16.050Z,7.93
2023-01-31T23:52:17.829Z,7.93
2023-01-31T23:57:19.626Z,6.30
